sensor_id;sensor_type;location;lat;lon;timestamp;temperature;humidity
21318;DHT22;10818;50.830;6.524;2023-07-30T00:00:30;17.60;99.90
21318;DHT22;10818;50.830;6.524;2023-07-30T00:05:30;17.50;99.90
21318;DHT22;10818;50.830;6.524;2023-07-30T00:10:31;17.50;99.90
21318;DHT22;10818;50.830;6.524;2023-07-30T00:15:32;17.40;99.90
21318;DHT22;10818;50.830;6.524;2023-07-30T00:20:34;17.40;99.90
21318;DHT22;10818;50.830;6.524;2023-07-30T00:25:34;17.40;99.90
21318;DHT22;10818;50.830;6.524;2023-07-30T00:30:35;17.40;99.90
21318;DHT22;10818;50.830;6.524;2023-07-30T00:35:35;17.30;99.90
21318;DHT22;10818;50.830;6.524;2023-07-30T00:40:39;17.30;99.90
21318;DHT22;10818;50.830;6.524;2023-07-30T00:45:40;17.20;99.90
21318;DHT22;10818;50.830;6.524;2023-07-30T00:50:41;17.20;99.90
21318;DHT22;10818;50.830;6.524;2023-07-30T00:55:41;17.30;99.90
21318;DHT22;10818;50.830;6.524;2023-07-30T01:00:42;17.20;99.90
21318;DHT22;10818;50.830;6.524;2023-07-30T01:05:43;17.20;99.90
21318;DHT22;10818;50.830;6.524;2023-07-30T01:10:44;17.50;99.90
21318;DHT22;10818;50.830;6.524;2023-07-30T01:15:45;17.60;99.90
21318;DHT22;10818;50.830;6.524;2023-07-30T01:20:46;17.80;99.90
21318;DHT22;10818;50.830;6.524;2023-07-30T01:25:46;17.90;99.90
21318;DHT22;10818;50.830;6.524;2023-07-30T01:31:07;18.00;99.90
21318;DHT22;10818;50.830;6.524;2023-07-30T01:36:08;18.10;99.90
21318;DHT22;10818;50.830;6.524;2023-07-30T01:41:11;18.20;99.90
21318;DHT22;10818;50.830;6.524;2023-07-30T01:46:11;18.20;99.90
21318;DHT22;10818;50.830;6.524;2023-07-30T01:51:12;18.20;99.90
21318;DHT22;10818;50.830;6.524;2023-07-30T01:56:12;18.20;99.90
21318;DHT22;10818;50.830;6.524;2023-07-30T02:01:13;18.20;99.90
21318;DHT22;10818;50.830;6.524;2023-07-30T02:06:13;18.20;99.90
21318;DHT22;10818;50.830;6.524;2023-07-30T02:11:13;18.40;99.90
21318;DHT22;10818;50.830;6.524;2023-07-30T02:16:14;18.30;99.90
21318;DHT22;10818;50.830;6.524;2023-07-30T02:21:14;18.30;99.90
21318;DHT22;10818;50.830;6.524;2023-07-30T02:26:15;18.30;99.90
21318;DHT22;10818;50.830;6.524;2023-07-30T02:31:15;18.30;99.90
21318;DHT22;10818;50.830;6.524;2023-07-30T02:36:16;18.30;99.90
21318;DHT22;10818;50.830;6.524;2023-07-30T02:41:16;18.40;99.90
21318;DHT22;10818;50.830;6.524;2023-07-30T02:46:17;18.40;99.90
21318;DHT22;10818;50.830;6.524;2023-07-30T02:51:17;18.40;99.90
21318;DHT22;10818;50.830;6.524;2023-07-30T02:56:18;18.40;99.90
21318;DHT22;10818;50.830;6.524;2023-07-30T03:01:18;18.40;99.90
21318;DHT22;10818;50.830;6.524;2023-07-30T03:06:19;18.50;99.90
21318;DHT22;10818;50.830;6.524;2023-07-30T03:11:19;18.50;99.90
21318;DHT22;10818;50.830;6.524;2023-07-30T03:16:19;18.50;99.90
21318;DHT22;10818;50.830;6.524;2023-07-30T03:21:20;18.50;99.90
21318;DHT22;10818;50.830;6.524;2023-07-30T03:26:20;18.50;99.90
21318;DHT22;10818;50.830;6.524;2023-07-30T03:31:21;18.50;99.90
21318;DHT22;10818;50.830;6.524;2023-07-30T03:36:21;18.30;99.90
21318;DHT22;10818;50.830;6.524;2023-07-30T03:41:22;18.00;99.90
21318;DHT22;10818;50.830;6.524;2023-07-30T03:46:22;17.90;99.90
21318;DHT22;10818;50.830;6.524;2023-07-30T03:51:23;17.80;99.90
21318;DHT22;10818;50.830;6.524;2023-07-30T03:56:23;17.80;99.90
21318;DHT22;10818;50.830;6.524;2023-07-30T04:01:25;17.90;99.90
21318;DHT22;10818;50.830;6.524;2023-07-30T04:06:25;17.90;99.90
21318;DHT22;10818;50.830;6.524;2023-07-30T04:11:26;18.00;99.90
21318;DHT22;10818;50.830;6.524;2023-07-30T04:16:26;17.90;99.90
21318;DHT22;10818;50.830;6.524;2023-07-30T04:21:27;18.00;99.90
21318;DHT22;10818;50.830;6.524;2023-07-30T04:26:27;18.00;99.90
21318;DHT22;10818;50.830;6.524;2023-07-30T04:31:28;17.90;99.90
21318;DHT22;10818;50.830;6.524;2023-07-30T04:36:28;18.00;99.90
21318;DHT22;10818;50.830;6.524;2023-07-30T04:41:28;18.00;99.90
21318;DHT22;10818;50.830;6.524;2023-07-30T04:46:29;18.20;99.90
21318;DHT22;10818;50.830;6.524;2023-07-30T04:51:30;18.10;99.90
21318;DHT22;10818;50.830;6.524;2023-07-30T04:56:30;18.20;99.90
21318;DHT22;10818;50.830;6.524;2023-07-30T05:01:31;18.30;99.90
21318;DHT22;10818;50.830;6.524;2023-07-30T05:06:31;18.30;99.90
21318;DHT22;10818;50.830;6.524;2023-07-30T05:11:33;18.30;99.90
21318;DHT22;10818;50.830;6.524;2023-07-30T05:16:33;18.50;99.90
21318;DHT22;10818;50.830;6.524;2023-07-30T05:21:33;18.60;99.90
21318;DHT22;10818;50.830;6.524;2023-07-30T05:26:34;18.60;99.90
21318;DHT22;10818;50.830;6.524;2023-07-30T05:31:34;18.50;99.90
21318;DHT22;10818;50.830;6.524;2023-07-30T05:36:35;18.40;99.90
21318;DHT22;10818;50.830;6.524;2023-07-30T05:41:35;18.40;99.90
21318;DHT22;10818;50.830;6.524;2023-07-30T05:46:36;18.40;99.90
21318;DHT22;10818;50.830;6.524;2023-07-30T05:51:36;18.50;99.90
21318;DHT22;10818;50.830;6.524;2023-07-30T05:56:37;18.70;99.90
21318;DHT22;10818;50.830;6.524;2023-07-30T06:01:37;18.70;99.90
21318;DHT22;10818;50.830;6.524;2023-07-30T06:06:38;18.70;99.90
21318;DHT22;10818;50.830;6.524;2023-07-30T06:11:38;18.80;99.90
21318;DHT22;10818;50.830;6.524;2023-07-30T06:16:38;19.10;99.90
21318;DHT22;10818;50.830;6.524;2023-07-30T06:21:39;18.90;99.90
21318;DHT22;10818;50.830;6.524;2023-07-30T06:26:40;18.90;99.90
21318;DHT22;10818;50.830;6.524;2023-07-30T06:31:40;19.00;99.90
21318;DHT22;10818;50.830;6.524;2023-07-30T06:36:40;19.20;99.90
21318;DHT22;10818;50.830;6.524;2023-07-30T06:41:41;19.10;99.90
21318;DHT22;10818;50.830;6.524;2023-07-30T06:46:41;19.10;99.90
21318;DHT22;10818;50.830;6.524;2023-07-30T06:51:42;19.10;99.90
21318;DHT22;10818;50.830;6.524;2023-07-30T06:56:42;19.30;99.90
21318;DHT22;10818;50.830;6.524;2023-07-30T07:01:43;19.50;99.90
21318;DHT22;10818;50.830;6.524;2023-07-30T07:06:43;19.70;99.90
21318;DHT22;10818;50.830;6.524;2023-07-30T07:11:43;19.80;99.90
21318;DHT22;10818;50.830;6.524;2023-07-30T07:16:44;19.90;99.90
21318;DHT22;10818;50.830;6.524;2023-07-30T07:21:44;19.60;99.90
21318;DHT22;10818;50.830;6.524;2023-07-30T07:26:45;19.60;99.90
21318;DHT22;10818;50.830;6.524;2023-07-30T07:31:45;19.70;99.90
21318;DHT22;10818;50.830;6.524;2023-07-30T07:36:46;19.50;99.90
21318;DHT22;10818;50.830;6.524;2023-07-30T07:41:46;19.20;99.90
21318;DHT22;10818;50.830;6.524;2023-07-30T07:46:47;19.10;99.90
21318;DHT22;10818;50.830;6.524;2023-07-30T07:51:49;19.20;99.90
21318;DHT22;10818;50.830;6.524;2023-07-30T07:56:49;19.30;99.90
21318;DHT22;10818;50.830;6.524;2023-07-30T08:01:50;19.60;99.90
21318;DHT22;10818;50.830;6.524;2023-07-30T08:06:50;19.70;99.90
21318;DHT22;10818;50.830;6.524;2023-07-30T08:11:51;20.40;99.90
21318;DHT22;10818;50.830;6.524;2023-07-30T08:16:51;21.30;99.90
21318;DHT22;10818;50.830;6.524;2023-07-30T08:21:52;21.50;99.90
21318;DHT22;10818;50.830;6.524;2023-07-30T08:26:52;21.50;99.90
21318;DHT22;10818;50.830;6.524;2023-07-30T08:31:52;23.10;99.90
21318;DHT22;10818;50.830;6.524;2023-07-30T08:36:53;24.90;99.90
21318;DHT22;10818;50.830;6.524;2023-07-30T08:41:53;24.50;99.90
21318;DHT22;10818;50.830;6.524;2023-07-30T08:46:54;24.10;99.90
21318;DHT22;10818;50.830;6.524;2023-07-30T08:51:54;24.50;99.90
21318;DHT22;10818;50.830;6.524;2023-07-30T08:56:55;24.70;99.90
21318;DHT22;10818;50.830;6.524;2023-07-30T09:01:55;24.40;99.90
21318;DHT22;10818;50.830;6.524;2023-07-30T09:06:57;23.70;99.90
21318;DHT22;10818;50.830;6.524;2023-07-30T09:11:59;23.20;99.90
21318;DHT22;10818;50.830;6.524;2023-07-30T09:17:00;22.80;99.90
21318;DHT22;10818;50.830;6.524;2023-07-30T09:22:05;23.00;99.90
21318;DHT22;10818;50.830;6.524;2023-07-30T09:27:06;23.50;99.90
21318;DHT22;10818;50.830;6.524;2023-07-30T09:32:07;23.90;99.90
21318;DHT22;10818;50.830;6.524;2023-07-30T09:37:07;24.60;99.90
21318;DHT22;10818;50.830;6.524;2023-07-30T09:42:08;25.10;99.90
21318;DHT22;10818;50.830;6.524;2023-07-30T09:47:09;25.40;99.90
21318;DHT22;10818;50.830;6.524;2023-07-30T09:52:10;24.90;99.90
21318;DHT22;10818;50.830;6.524;2023-07-30T09:57:10;23.90;99.90
21318;DHT22;10818;50.830;6.524;2023-07-30T10:02:11;23.50;99.90
21318;DHT22;10818;50.830;6.524;2023-07-30T10:07:13;23.50;99.90
21318;DHT22;10818;50.830;6.524;2023-07-30T10:12:16;23.60;99.90
21318;DHT22;10818;50.830;6.524;2023-07-30T10:17:17;24.00;99.90
21318;DHT22;10818;50.830;6.524;2023-07-30T10:27:18;25.50;99.90
21318;DHT22;10818;50.830;6.524;2023-07-30T10:32:23;25.60;99.90
21318;DHT22;10818;50.830;6.524;2023-07-30T10:37:24;25.20;99.90
21318;DHT22;10818;50.830;6.524;2023-07-30T10:42:32;25.50;99.90
21318;DHT22;10818;50.830;6.524;2023-07-30T10:47:34;25.60;99.90
21318;DHT22;10818;50.830;6.524;2023-07-30T10:52:35;25.60;99.90
21318;DHT22;10818;50.830;6.524;2023-07-30T10:57:36;25.80;99.90
21318;DHT22;10818;50.830;6.524;2023-07-30T11:02:39;26.30;99.90
21318;DHT22;10818;50.830;6.524;2023-07-30T11:07:48;26.50;99.90
21318;DHT22;10818;50.830;6.524;2023-07-30T11:12:49;26.90;99.90
21318;DHT22;10818;50.830;6.524;2023-07-30T11:17:52;26.70;99.90
21318;DHT22;10818;50.830;6.524;2023-07-30T11:22:53;26.70;99.90
21318;DHT22;10818;50.830;6.524;2023-07-30T11:27:54;26.80;99.90
21318;DHT22;10818;50.830;6.524;2023-07-30T11:32:54;27.30;99.90
21318;DHT22;10818;50.830;6.524;2023-07-30T11:37:56;27.20;99.90
21318;DHT22;10818;50.830;6.524;2023-07-30T11:42:58;26.80;99.90
21318;DHT22;10818;50.830;6.524;2023-07-30T11:48:05;27.40;99.90
21318;DHT22;10818;50.830;6.524;2023-07-30T11:53:08;27.50;99.90
21318;DHT22;10818;50.830;6.524;2023-07-30T11:58:09;26.80;99.90
21318;DHT22;10818;50.830;6.524;2023-07-30T12:03:10;26.10;99.90
21318;DHT22;10818;50.830;6.524;2023-07-30T12:08:16;25.50;99.90
21318;DHT22;10818;50.830;6.524;2023-07-30T12:13:17;26.00;99.90
21318;DHT22;10818;50.830;6.524;2023-07-30T12:18:18;26.20;99.90
21318;DHT22;10818;50.830;6.524;2023-07-30T12:23:19;26.40;99.90
21318;DHT22;10818;50.830;6.524;2023-07-30T12:28:20;26.10;99.90
21318;DHT22;10818;50.830;6.524;2023-07-30T12:33:20;25.60;99.90
21318;DHT22;10818;50.830;6.524;2023-07-30T12:38:21;25.00;99.90
21318;DHT22;10818;50.830;6.524;2023-07-30T12:43:21;25.00;99.90
21318;DHT22;10818;50.830;6.524;2023-07-30T12:48:22;25.10;99.90
21318;DHT22;10818;50.830;6.524;2023-07-30T12:53:22;25.10;99.90
21318;DHT22;10818;50.830;6.524;2023-07-30T12:58:23;24.90;99.90
21318;DHT22;10818;50.830;6.524;2023-07-30T13:03:23;24.90;99.90
21318;DHT22;10818;50.830;6.524;2023-07-30T13:08:24;25.20;99.90
21318;DHT22;10818;50.830;6.524;2023-07-30T13:13:24;24.80;99.90
21318;DHT22;10818;50.830;6.524;2023-07-30T13:18:25;24.80;99.90
21318;DHT22;10818;50.830;6.524;2023-07-30T13:23:25;25.00;99.90
21318;DHT22;10818;50.830;6.524;2023-07-30T13:28:26;25.10;99.90
21318;DHT22;10818;50.830;6.524;2023-07-30T13:33:26;25.10;99.90
21318;DHT22;10818;50.830;6.524;2023-07-30T13:38:27;25.60;99.90
21318;DHT22;10818;50.830;6.524;2023-07-30T13:43:28;25.30;99.90
21318;DHT22;10818;50.830;6.524;2023-07-30T13:48:28;25.50;99.90
21318;DHT22;10818;50.830;6.524;2023-07-30T13:53:29;25.60;99.90
21318;DHT22;10818;50.830;6.524;2023-07-30T13:58:29;25.70;99.40
21318;DHT22;10818;50.830;6.524;2023-07-30T14:03:30;25.70;99.90
21318;DHT22;10818;50.830;6.524;2023-07-30T14:08:30;25.80;99.90
21318;DHT22;10818;50.830;6.524;2023-07-30T14:13:31;25.50;99.90
21318;DHT22;10818;50.830;6.524;2023-07-30T14:18:31;25.80;99.90
21318;DHT22;10818;50.830;6.524;2023-07-30T14:23:32;25.80;99.90
21318;DHT22;10818;50.830;6.524;2023-07-30T14:28:32;25.40;99.90
21318;DHT22;10818;50.830;6.524;2023-07-30T14:33:32;25.60;99.90
21318;DHT22;10818;50.830;6.524;2023-07-30T14:38:33;25.50;99.90
21318;DHT22;10818;50.830;6.524;2023-07-30T14:43:34;26.00;99.90
21318;DHT22;10818;50.830;6.524;2023-07-30T14:48:35;26.10;99.90
21318;DHT22;10818;50.830;6.524;2023-07-30T14:53:35;25.50;99.90
21318;DHT22;10818;50.830;6.524;2023-07-30T14:58:36;24.90;99.90
21318;DHT22;10818;50.830;6.524;2023-07-30T15:03:36;24.60;99.90
21318;DHT22;10818;50.830;6.524;2023-07-30T15:08:37;24.70;99.90
21318;DHT22;10818;50.830;6.524;2023-07-30T15:13:37;25.00;99.90
21318;DHT22;10818;50.830;6.524;2023-07-30T15:18:38;24.90;99.90
21318;DHT22;10818;50.830;6.524;2023-07-30T15:23:38;24.60;99.90
21318;DHT22;10818;50.830;6.524;2023-07-30T15:28:40;24.10;99.90
21318;DHT22;10818;50.830;6.524;2023-07-30T15:33:40;24.20;99.90
21318;DHT22;10818;50.830;6.524;2023-07-30T15:38:41;24.60;99.90
21318;DHT22;10818;50.830;6.524;2023-07-30T15:43:41;24.70;99.90
21318;DHT22;10818;50.830;6.524;2023-07-30T15:48:42;24.70;99.90
21318;DHT22;10818;50.830;6.524;2023-07-30T15:53:42;24.90;99.90
21318;DHT22;10818;50.830;6.524;2023-07-30T15:58:44;24.50;99.90
21318;DHT22;10818;50.830;6.524;2023-07-30T16:03:44;24.60;99.90
21318;DHT22;10818;50.830;6.524;2023-07-30T16:08:45;24.60;99.90
21318;DHT22;10818;50.830;6.524;2023-07-30T16:13:45;24.60;99.90
21318;DHT22;10818;50.830;6.524;2023-07-30T16:18:46;24.90;99.90
21318;DHT22;10818;50.830;6.524;2023-07-30T16:23:47;24.80;99.90
21318;DHT22;10818;50.830;6.524;2023-07-30T16:28:47;24.70;99.90
21318;DHT22;10818;50.830;6.524;2023-07-30T16:33:47;25.10;99.90
21318;DHT22;10818;50.830;6.524;2023-07-30T16:38:48;24.90;98.00
21318;DHT22;10818;50.830;6.524;2023-07-30T16:43:50;24.70;99.30
21318;DHT22;10818;50.830;6.524;2023-07-30T16:48:51;24.50;98.90
21318;DHT22;10818;50.830;6.524;2023-07-30T16:53:51;24.50;98.70
21318;DHT22;10818;50.830;6.524;2023-07-30T16:58:51;24.70;99.40
21318;DHT22;10818;50.830;6.524;2023-07-30T17:03:52;24.60;99.90
21318;DHT22;10818;50.830;6.524;2023-07-30T17:08:52;24.50;99.80
21318;DHT22;10818;50.830;6.524;2023-07-30T17:13:53;24.10;99.90
21318;DHT22;10818;50.830;6.524;2023-07-30T17:18:56;23.90;99.90
21318;DHT22;10818;50.830;6.524;2023-07-30T17:23:57;23.40;99.90
21318;DHT22;10818;50.830;6.524;2023-07-30T17:28:57;23.30;99.90
21318;DHT22;10818;50.830;6.524;2023-07-30T17:33:58;22.70;99.90
21318;DHT22;10818;50.830;6.524;2023-07-30T17:38:59;22.20;99.90
21318;DHT22;10818;50.830;6.524;2023-07-30T17:43:59;21.90;99.90
21318;DHT22;10818;50.830;6.524;2023-07-30T17:49:00;21.40;99.90
21318;DHT22;10818;50.830;6.524;2023-07-30T17:54:00;21.00;99.90
21318;DHT22;10818;50.830;6.524;2023-07-30T17:59:01;20.90;99.90
21318;DHT22;10818;50.830;6.524;2023-07-30T18:04:01;20.70;99.90
21318;DHT22;10818;50.830;6.524;2023-07-30T18:09:02;20.70;99.90
21318;DHT22;10818;50.830;6.524;2023-07-30T18:14:03;20.80;99.90
21318;DHT22;10818;50.830;6.524;2023-07-30T18:19:04;20.70;99.90
21318;DHT22;10818;50.830;6.524;2023-07-30T18:24:04;20.60;99.90
21318;DHT22;10818;50.830;6.524;2023-07-30T18:29:04;20.60;99.90
21318;DHT22;10818;50.830;6.524;2023-07-30T18:34:05;20.70;99.90
21318;DHT22;10818;50.830;6.524;2023-07-30T18:39:06;20.60;99.90
21318;DHT22;10818;50.830;6.524;2023-07-30T18:44:06;20.50;99.90
21318;DHT22;10818;50.830;6.524;2023-07-30T18:49:07;20.30;99.90
21318;DHT22;10818;50.830;6.524;2023-07-30T18:54:07;20.20;99.90
21318;DHT22;10818;50.830;6.524;2023-07-30T18:59:07;19.70;99.90
21318;DHT22;10818;50.830;6.524;2023-07-30T19:04:08;19.50;99.90
21318;DHT22;10818;50.830;6.524;2023-07-30T19:09:08;19.30;99.90
21318;DHT22;10818;50.830;6.524;2023-07-30T19:14:09;18.90;99.90
21318;DHT22;10818;50.830;6.524;2023-07-30T19:19:09;18.80;99.90
21318;DHT22;10818;50.830;6.524;2023-07-30T19:24:10;18.70;99.90
21318;DHT22;10818;50.830;6.524;2023-07-30T19:29:10;18.50;99.90
21318;DHT22;10818;50.830;6.524;2023-07-30T19:34:11;18.60;99.90
21318;DHT22;10818;50.830;6.524;2023-07-30T19:39:12;18.50;99.90
21318;DHT22;10818;50.830;6.524;2023-07-30T19:44:12;18.50;99.90
21318;DHT22;10818;50.830;6.524;2023-07-30T19:49:13;18.30;99.90
21318;DHT22;10818;50.830;6.524;2023-07-30T19:54:13;18.20;99.90
21318;DHT22;10818;50.830;6.524;2023-07-30T19:59:14;18.10;99.90
21318;DHT22;10818;50.830;6.524;2023-07-30T20:04:14;18.10;99.90
21318;DHT22;10818;50.830;6.524;2023-07-30T20:09:15;17.90;99.90
21318;DHT22;10818;50.830;6.524;2023-07-30T20:14:15;17.90;99.90
21318;DHT22;10818;50.830;6.524;2023-07-30T20:19:16;17.80;99.90
21318;DHT22;10818;50.830;6.524;2023-07-30T20:24:17;17.90;99.90
21318;DHT22;10818;50.830;6.524;2023-07-30T20:29:17;17.90;99.90
21318;DHT22;10818;50.830;6.524;2023-07-30T20:34:20;17.80;99.90
21318;DHT22;10818;50.830;6.524;2023-07-30T20:39:20;17.60;99.90
21318;DHT22;10818;50.830;6.524;2023-07-30T20:44:21;17.60;99.90
21318;DHT22;10818;50.830;6.524;2023-07-30T20:49:21;17.70;99.90
21318;DHT22;10818;50.830;6.524;2023-07-30T20:54:21;17.70;99.90
21318;DHT22;10818;50.830;6.524;2023-07-30T20:59:22;17.60;99.90
21318;DHT22;10818;50.830;6.524;2023-07-30T21:04:22;17.60;99.90
21318;DHT22;10818;50.830;6.524;2023-07-30T21:09:23;17.70;99.90
21318;DHT22;10818;50.830;6.524;2023-07-30T21:14:23;17.70;99.90
21318;DHT22;10818;50.830;6.524;2023-07-30T21:19:24;17.60;99.90
21318;DHT22;10818;50.830;6.524;2023-07-30T21:24:25;17.70;99.90
21318;DHT22;10818;50.830;6.524;2023-07-30T21:29:26;17.70;99.90
21318;DHT22;10818;50.830;6.524;2023-07-30T21:34:26;17.70;99.90
21318;DHT22;10818;50.830;6.524;2023-07-30T21:39:27;17.50;99.90
21318;DHT22;10818;50.830;6.524;2023-07-30T21:44:27;17.70;99.90
21318;DHT22;10818;50.830;6.524;2023-07-30T21:49:28;17.70;99.90
21318;DHT22;10818;50.830;6.524;2023-07-30T21:54:28;17.60;99.90
21318;DHT22;10818;50.830;6.524;2023-07-30T21:59:29;17.70;99.90
21318;DHT22;10818;50.830;6.524;2023-07-30T22:04:31;17.60;99.90
21318;DHT22;10818;50.830;6.524;2023-07-30T22:09:32;17.70;99.90
21318;DHT22;10818;50.830;6.524;2023-07-30T22:14:32;17.60;99.90
21318;DHT22;10818;50.830;6.524;2023-07-30T22:19:33;17.60;99.90
21318;DHT22;10818;50.830;6.524;2023-07-30T22:24:33;17.50;99.90
21318;DHT22;10818;50.830;6.524;2023-07-30T22:29:34;17.70;99.90
21318;DHT22;10818;50.830;6.524;2023-07-30T22:34:34;17.60;99.90
21318;DHT22;10818;50.830;6.524;2023-07-30T22:39:34;17.70;99.90
21318;DHT22;10818;50.830;6.524;2023-07-30T22:44:35;17.80;99.90
21318;DHT22;10818;50.830;6.524;2023-07-30T22:49:35;17.80;99.90
21318;DHT22;10818;50.830;6.524;2023-07-30T22:54:36;17.80;99.90
21318;DHT22;10818;50.830;6.524;2023-07-30T22:59:36;17.70;99.90
21318;DHT22;10818;50.830;6.524;2023-07-30T23:04:37;17.90;99.90
21318;DHT22;10818;50.830;6.524;2023-07-30T23:09:37;17.90;99.90
21318;DHT22;10818;50.830;6.524;2023-07-30T23:14:37;17.90;99.90
21318;DHT22;10818;50.830;6.524;2023-07-30T23:19:38;18.00;99.90
21318;DHT22;10818;50.830;6.524;2023-07-30T23:24:38;18.00;99.90
21318;DHT22;10818;50.830;6.524;2023-07-30T23:29:39;18.00;99.90
21318;DHT22;10818;50.830;6.524;2023-07-30T23:34:39;18.00;99.90
21318;DHT22;10818;50.830;6.524;2023-07-30T23:39:40;18.10;99.90
21318;DHT22;10818;50.830;6.524;2023-07-30T23:44:40;18.00;99.90
21318;DHT22;10818;50.830;6.524;2023-07-30T23:49:41;18.00;99.90
21318;DHT22;10818;50.830;6.524;2023-07-30T23:54:41;18.00;99.90
21318;DHT22;10818;50.830;6.524;2023-07-30T23:59:42;18.10;99.90
